Corona Royal — 3FFM6 — position and weather

sailwx.info

Track history (hours):
 
Tides and Currents Weather Stations Pressure Air Temp Water Temp Dewpoint Dewpoint Depression Visibility Wind Speed Wind Dir Waves Ship Positions

Corona Royal

Last reported at 2017-Sep-21 18:33 UTC. Time now 2017-Oct-19 00:26 UTC.
Position S 31°42' E 153°01'.
Warning: this ship's position is 27 days out of date.

Length 230 m; draft 13.8 m.

Type: Cargo ship. MMSI: 357338000.

Date/timePositionNaut miles runAvg speedWind from/ knotsBaromVisibWave heightAir tempDewpointWater temp
2017-Sep-21 18:33S 31°42' E 153°01'011.5
2017-Sep-21 18:30S 31°42' E 153°01'612.0
2017-Sep-21 18:00S 31°48' E 152°58'612.4
2017-Sep-21 17:30S 31°53' E 152°55'612.4
2017-Sep-21 17:00S 31°59' E 152°53'612.4
2017-Sep-21 16:30S 32°05' E 152°50'612.3
2017-Sep-21 16:00S 32°11' E 152°47'712.0
2017-Sep-21 15:23S 32°17' E 152°44'711.6
2017-Sep-21 14:46S 32°24' E 152°40'411.6
2017-Sep-21 14:27S 32°27' E 152°38'511.1
2017-Sep-21 14:00S 32°31' E 152°35'611.4
2017-Sep-21 13:30S 32°36' E 152°30'611.5
2017-Sep-21 13:00S 32°40' E 152°26'611.4
2017-Sep-21 12:30S 32°44' E 152°21'611.4
2017-Sep-21 12:00S 32°48' E 152°17'611.2
2017-Sep-21 11:30S 32°52' E 152°12'611.4
2017-Sep-21 11:00S 32°55' E 152°06'611.2
2017-Sep-21 10:30S 32°57' E 151°59'611.0
2017-Sep-21 10:00S 32°56' E 151°53'4 7.6
2017-Sep-21 09:31S 32°55' E 151°49'2 3.9
2017-Sep-21 09:01S 32°55' E 151°46'2 3.5
2017-Sep-21 08:30S 32°53' E 151°45'1 0.2
2017-Sep-21 05:24S 32°53' E 151°45'0 0.0
2017-Sep-21 05:00S 32°53' E 151°45'0 0.0
2017-Sep-21 04:21S 32°53' E 151°45'0 0.0
2017-Sep-21 04:00S 32°53' E 151°45'0 0.0
2017-Sep-21 03:30S 32°53' E 151°45'0 0.0
2017-Sep-21 02:51S 32°53' E 151°45'0 0.0
2017-Sep-21 02:30S 32°53' E 151°45'0 0.0
2017-Sep-21 01:57S 32°53' E 151°45'0 0.0
2017-Sep-20 23:51S 32°53' E 151°45'0 0.0
2017-Sep-20 23:12S 32°53' E 151°45'0 0.0
2017-Sep-20 21:48S 32°53' E 151°45'0 0.0
2017-Sep-20 21:30S 32°53' E 151°45'0 0.0
2017-Sep-20 16:45S 32°53' E 151°45'0 0.0
2017-Sep-20 16:24S 32°53' E 151°45'0 0.0
2017-Sep-20 15:54S 32°53' E 151°45'0 0.0
2017-Sep-20 12:24S 32°53' E 151°45'0 0.0
2017-Sep-20 11:54S 32°53' E 151°45'0 0.0
2017-Sep-20 11:24S 32°53' E 151°45'0 0.0
2017-Sep-20 10:57S 32°53' E 151°45'0 0.0
2017-Sep-20 10:30S 32°53' E 151°45'0 0.0
2017-Sep-20 10:00S 32°53' E 151°45'0 0.0
2017-Sep-20 09:27S 32°53' E 151°45'0 0.0
2017-Sep-20 09:00S 32°53' E 151°45'0 0.0
2017-Sep-20 08:27S 32°53' E 151°45'0 0.0
2017-Sep-20 07:54S 32°53' E 151°45'0 0.0
2017-Sep-20 07:27S 32°53' E 151°45'0 0.0
2017-Sep-20 06:57S 32°53' E 151°45'0 0.0
2017-Sep-20 06:27S 32°53' E 151°45'0 0.0
2017-Sep-20 05:48S 32°53' E 151°45'0 0.0
2017-Sep-20 05:30S 32°53' E 151°45'0 0.4
2017-Sep-20 05:00S 32°53' E 151°45'1 2.3
2017-Sep-20 04:30S 32°54' E 151°46'2 3.7
2017-Sep-20 04:00S 32°55' E 151°48'4 7.8
2017-Sep-20 03:30S 32°57' E 151°51'3 5.2
2017-Sep-20 03:00S 32°60' E 151°51'610.8
2017-Sep-20 02:30S 33°05' E 151°48'813.0
2017-Sep-20 01:55S 33°12' E 151°44'7 1.0
2017-Sep-19 18:55S 33°17' E 151°39'0 0.0
2017-Sep-19 18:19S 33°17' E 151°39'0 0.0
2017-Sep-19 17:55S 33°17' E 151°39'0 0.0
2017-Sep-19 16:13S 33°17' E 151°39'0 0.1
2017-Sep-19 15:43S 33°17' E 151°39'0 0.2
2017-Sep-19 15:25S 33°17' E 151°39'0 0.0
2017-Sep-19 14:55S 33°17' E 151°39'0 0.0
2017-Sep-19 07:19S 33°17' E 151°39'0 0.0
2017-Sep-19 06:58S 33°17' E 151°39'0 0.0
2017-Sep-19 06:28S 33°17' E 151°39'0 0.0
2017-Sep-19 05:49S 33°17' E 151°39'0 0.1
2017-Sep-19 05:28S 33°17' E 151°39'0 0.2
2017-Sep-19 04:49S 33°17' E 151°39'0 0.0
2017-Sep-19 04:28S 33°17' E 151°39'0 0.1
2017-Sep-19 03:58S 33°17' E 151°39'0 0.2
2017-Sep-19 03:22S 33°17' E 151°39'0 0.0
2017-Sep-19 02:58S 33°17' E 151°39'0 0.1
2017-Sep-19 02:28S 33°18' E 151°39'0 0.1
2017-Sep-19 01:58S 33°18' E 151°39'0 0.0
2017-Sep-19 01:28S 33°18' E 151°39'0 0.1
2017-Sep-19 00:52S 33°18' E 151°39'0 0.0
2017-Sep-19 00:28S 33°18' E 151°39'0 0.1
2017-Sep-18 23:55S 33°18' E 151°39'0 0.0
2017-Sep-18 22:55S 33°18' E 151°39'0 0.1
2017-Sep-18 22:28S 33°18' E 151°39'0 0.0
2017-Sep-18 21:58S 33°18' E 151°39'0 0.0
2017-Sep-18 21:28S 33°18' E 151°39'0 0.1
2017-Sep-18 20:58S 33°18' E 151°39'0 0.0
2017-Sep-18 20:28S 33°18' E 151°39'0 0.0
2017-Sep-18 19:58S 33°18' E 151°39'0 0.0
2017-Sep-18 19:28S 33°18' E 151°39'0 0.0
2017-Sep-18 18:58S 33°18' E 151°39'0 0.0
2017-Sep-18 18:28S 33°18' E 151°39'0 0.1
2017-Sep-18 17:58S 33°18' E 151°39'0 0.1
2017-Sep-18 17:28S 33°18' E 151°39'0 0.1
2017-Sep-18 16:58S 33°18' E 151°39'0 0.1
2017-Sep-18 16:28S 33°18' E 151°39'0 0.0
2017-Sep-18 15:58S 33°18' E 151°39'0 0.1
2017-Sep-18 15:28S 33°18' E 151°39'0 0.0
2017-Sep-18 14:58S 33°18' E 151°39'0 0.0
2017-Sep-18 14:28S 33°18' E 151°39'0 0.0
2017-Sep-18 13:58S 33°18' E 151°39'0 0.0
2017-Sep-18 13:28S 33°18' E 151°39'0 0.0
2017-Sep-18 12:58S 33°18' E 151°39'0 0.0
2017-Sep-18 12:28S 33°18' E 151°39'0 0.1
2017-Sep-18 11:58S 33°18' E 151°39'0 0.0
2017-Sep-18 11:25S 33°18' E 151°39'0 0.1
2017-Sep-18 10:58S 33°18' E 151°39'0 0.1
2017-Sep-18 10:28S 33°18' E 151°39'0 0.1
2017-Sep-18 09:58S 33°18' E 151°39'0 0.0
2017-Sep-18 09:28S 33°18' E 151°39'0 0.0
2017-Sep-18 08:58S 33°18' E 151°39'0 0.0
2017-Sep-18 08:28S 33°18' E 151°39'0 0.0
2017-Sep-18 07:58S 33°18' E 151°39'0 0.0
2017-Sep-18 07:28S 33°18' E 151°39'0 0.0
2017-Sep-18 06:58S 33°18' E 151°39'0 0.0
2017-Sep-18 06:28S 33°18' E 151°39'0 0.0
2017-Sep-18 05:58S 33°18' E 151°39'0 0.0
2017-Sep-18 05:28S 33°18' E 151°39'0 0.0
2017-Sep-18 04:58S 33°18' E 151°39'0 0.0
2017-Sep-18 04:28S 33°18' E 151°39'0 0.0
2017-Sep-18 03:58S 33°18' E 151°39'0 0.0
2017-Sep-18 03:28S 33°18' E 151°39'0 0.0
2017-Sep-18 02:58S 33°18' E 151°39'0 0.0
2017-Sep-18 02:28S 33°18' E 151°39'0 0.0
2017-Sep-18 01:55S 33°18' E 151°39'0 0.0
2017-Sep-18 01:25S 33°18' E 151°39'0 0.1
2017-Sep-18 00:52S 33°18' E 151°39'0 0.0
2017-Sep-18 00:28S 33°18' E 151°39'0 0.0
2017-Sep-17 23:55S 33°18' E 151°39'0 0.0
2017-Sep-17 23:25S 33°18' E 151°39'0 0.0
2017-Sep-17 22:55S 33°18' E 151°39'0 0.0
2017-Sep-17 22:25S 33°18' E 151°39'0 0.0
2017-Sep-17 21:55S 33°18' E 151°39'0 0.0
2017-Sep-17 21:25S 33°18' E 151°39'0 0.1
2017-Sep-17 20:55S 33°18' E 151°39'0 0.1
2017-Sep-17 20:13S 33°18' E 151°39'0 0.0
2017-Sep-17 19:55S 33°18' E 151°39'0 0.0
2017-Sep-17 19:25S 33°18' E 151°39'0 0.0
2017-Sep-17 18:52S 33°18' E 151°39'0 0.1
2017-Sep-17 18:25S 33°18' E 151°39'0 0.0
2017-Sep-16 21:43S 33°17' E 151°39'0 0.0
2017-Sep-16 21:19S 33°17' E 151°39'0 0.0
2017-Sep-16 20:55S 33°17' E 151°39'0 0.0
2017-Sep-16 20:25S 33°17' E 151°39'0 0.0
2017-Sep-16 19:55S 33°17' E 151°39'0 0.1
2017-Sep-16 19:01S 33°17' E 151°39'0 0.5
2017-Sep-16 18:55S 33°17' E 151°39'0 0.0
2017-Sep-16 18:19S 33°17' E 151°39'0 0.1
2017-Sep-16 17:58S 33°17' E 151°39'0 0.1
2017-Sep-16 17:25S 33°17' E 151°39'0 0.0
2017-Sep-16 16:55S 33°17' E 151°39'0 0.1
2017-Sep-16 16:25S 33°17' E 151°39'0 0.0
2017-Sep-16 05:55S 33°17' E 151°39'0 0.2
2017-Sep-16 05:22S 33°17' E 151°39'0 0.1
2017-Sep-16 04:49S 33°17' E 151°39'0 0.2
2017-Sep-16 03:37S 33°18' E 151°39'0 0.0
2017-Sep-16 01:25S 33°18' E 151°39'0 0.0
2017-Sep-15 23:22S 33°18' E 151°39'0 0.0
2017-Sep-15 21:28S 33°18' E 151°39'0 0.0
2017-Sep-15 20:58S 33°18' E 151°39'0 0.1
2017-Sep-15 20:28S 33°18' E 151°39'0 0.1
2017-Sep-15 19:55S 33°18' E 151°39'0 0.1
2017-Sep-15 19:19S 33°17' E 151°39'0 0.1
2017-Sep-15 18:58S 33°17' E 151°39'0 0.0
2017-Sep-15 18:25S 33°17' E 151°39'0 0.2
2017-Sep-15 17:49S 33°18' E 151°39'0 1.1
2017-Sep-15 17:30S 33°17' E 151°40'3 5.4
2017-Sep-15 17:00S 33°16' E 151°42'810.4
2017-Sep-15 16:12S 33°12' E 151°51'413.0
2017-Sep-15 15:55S 33°10' E 151°55'512.9
2017-Sep-15 15:30S 33°07' E 152°00'612.8
2017-Sep-15 15:00S 33°04' E 152°07'5 9.3
2017-Sep-15 14:30S 33°01' E 152°11'1 1.2
2017-Sep-15 13:59S 33°02' E 152°11'1 1.1
2017-Sep-15 13:29S 33°02' E 152°11'1 1.1
2017-Sep-15 12:59S 33°03' E 152°11'1 1.3
2017-Sep-15 12:29S 33°03' E 152°11'1 1.3
2017-Sep-15 11:59S 33°04' E 152°12'1 1.0
2017-Sep-15 11:29S 33°05' E 152°12'0 0.8
2017-Sep-15 10:59S 33°05' E 152°12'0 0.9
2017-Sep-15 10:30S 33°05' E 152°13'1 1.1
2017-Sep-15 09:58S 33°05' E 152°13'1 1.4
2017-Sep-15 09:28S 33°06' E 152°14'1 1.6
2017-Sep-15 08:59S 33°06' E 152°15'1 1.2
2017-Sep-15 08:28S 33°06' E 152°16'1 1.2
2017-Sep-15 08:00S 33°06' E 152°16'2 4.5
2017-Sep-15 07:30S 33°05' E 152°18'612.9
2017-Sep-15 07:00S 32°59' E 152°21'612.8
2017-Sep-15 06:30S 32°53' E 152°24'713.1
2017-Sep-15 06:00S 32°47' E 152°27'713.3
2017-Sep-15 05:30S 32°41' E 152°31'612.9
2017-Sep-15 05:00S 32°35' E 152°34'612.6
2017-Sep-15 04:30S 32°29' E 152°37'1313.0
2017-Sep-15 03:33S 32°18' E 152°43'113.2
2017-Sep-15 03:30S 32°17' E 152°43'23111.2
2017-Sep-14 06:53S 28°33' E 153°48'512.5
2017-Sep-14 06:30S 28°29' E 153°48'612.1
2017-Sep-14 06:00S 28°22' E 153°48'612.4
2017-Sep-14 05:30S 28°16' E 153°48'612.7
2017-Sep-14 05:00S 28°10' E 153°48'613.0
2017-Sep-14 04:30S 28°03' E 153°48'713.4
2017-Sep-14 04:00S 27°57' E 153°48'713.3
2017-Sep-14 03:30S 27°50' E 153°48'713.1
2017-Sep-14 03:00S 27°44' E 153°49'613.0
2017-Sep-14 02:30S 27°37' E 153°49'812.9
2017-Sep-14 01:52S 27°29' E 153°49'2712.7
2017-Sep-13 23:46S 27°02' E 153°51'5912.5
2017-Sep-13 19:03S 26°03' E 153°54'113.8
2017-Sep-13 19:00S 26°03' E 153°54'814.3
2017-Sep-13 18:28S 25°55' E 153°55'714.6
2017-Sep-13 18:00S 25°48' E 153°57'  
Track history (hours):
 
Tides and Currents Weather Stations Pressure Air Temp Water Temp Dewpoint Dewpoint Depression Visibility Wind Speed Wind Dir Waves Ship Positions

Corona Royal

Last reported at 2017-Sep-21 18:33 UTC. Time now 2017-Oct-19 00:26 UTC.
Position S 31°42' E 153°01'.
Warning: this ship's position is 27 days out of date.

Length 230 m; draft 13.8 m.

Type: Cargo ship. MMSI: 357338000.

Date/timePositionNaut miles runAvg speedWind from/ knotsBaromVisibWave heightAir tempDewpointWater temp
2017-Sep-21 18:33S 31°42' E 153°01'011.5
2017-Sep-21 18:30S 31°42' E 153°01'612.0
2017-Sep-21 18:00S 31°48' E 152°58'612.4
2017-Sep-21 17:30S 31°53' E 152°55'612.4
2017-Sep-21 17:00S 31°59' E 152°53'612.4
2017-Sep-21 16:30S 32°05' E 152°50'612.3
2017-Sep-21 16:00S 32°11' E 152°47'712.0
2017-Sep-21 15:23S 32°17' E 152°44'711.6
2017-Sep-21 14:46S 32°24' E 152°40'411.6
2017-Sep-21 14:27S 32°27' E 152°38'511.1
2017-Sep-21 14:00S 32°31' E 152°35'611.4
2017-Sep-21 13:30S 32°36' E 152°30'611.5
2017-Sep-21 13:00S 32°40' E 152°26'611.4
2017-Sep-21 12:30S 32°44' E 152°21'611.4
2017-Sep-21 12:00S 32°48' E 152°17'611.2
2017-Sep-21 11:30S 32°52' E 152°12'611.4
2017-Sep-21 11:00S 32°55' E 152°06'611.2
2017-Sep-21 10:30S 32°57' E 151°59'611.0
2017-Sep-21 10:00S 32°56' E 151°53'4 7.6
2017-Sep-21 09:31S 32°55' E 151°49'2 3.9
2017-Sep-21 09:01S 32°55' E 151°46'2 3.5
2017-Sep-21 08:30S 32°53' E 151°45'1 0.2
2017-Sep-21 05:24S 32°53' E 151°45'0 0.0
2017-Sep-21 05:00S 32°53' E 151°45'0 0.0
2017-Sep-21 04:21S 32°53' E 151°45'0 0.0
2017-Sep-21 04:00S 32°53' E 151°45'0 0.0
2017-Sep-21 03:30S 32°53' E 151°45'0 0.0
2017-Sep-21 02:51S 32°53' E 151°45'0 0.0
2017-Sep-21 02:30S 32°53' E 151°45'0 0.0
2017-Sep-21 01:57S 32°53' E 151°45'0 0.0
2017-Sep-20 23:51S 32°53' E 151°45'0 0.0
2017-Sep-20 23:12S 32°53' E 151°45'0 0.0
2017-Sep-20 21:48S 32°53' E 151°45'0 0.0
2017-Sep-20 21:30S 32°53' E 151°45'0 0.0
2017-Sep-20 16:45S 32°53' E 151°45'0 0.0
2017-Sep-20 16:24S 32°53' E 151°45'0 0.0
2017-Sep-20 15:54S 32°53' E 151°45'0 0.0
2017-Sep-20 12:24S 32°53' E 151°45'0 0.0
2017-Sep-20 11:54S 32°53' E 151°45'0 0.0
2017-Sep-20 11:24S 32°53' E 151°45'0 0.0
2017-Sep-20 10:57S 32°53' E 151°45'0 0.0
2017-Sep-20 10:30S 32°53' E 151°45'0 0.0
2017-Sep-20 10:00S 32°53' E 151°45'0 0.0
2017-Sep-20 09:27S 32°53' E 151°45'0 0.0
2017-Sep-20 09:00S 32°53' E 151°45'0 0.0
2017-Sep-20 08:27S 32°53' E 151°45'0 0.0
2017-Sep-20 07:54S 32°53' E 151°45'0 0.0
2017-Sep-20 07:27S 32°53' E 151°45'0 0.0
2017-Sep-20 06:57S 32°53' E 151°45'0 0.0
2017-Sep-20 06:27S 32°53' E 151°45'0 0.0
2017-Sep-20 05:48S 32°53' E 151°45'0 0.0
2017-Sep-20 05:30S 32°53' E 151°45'0 0.4
2017-Sep-20 05:00S 32°53' E 151°45'1 2.3
2017-Sep-20 04:30S 32°54' E 151°46'2 3.7
2017-Sep-20 04:00S 32°55' E 151°48'4 7.8
2017-Sep-20 03:30S 32°57' E 151°51'3 5.2
2017-Sep-20 03:00S 32°60' E 151°51'610.8
2017-Sep-20 02:30S 33°05' E 151°48'813.0
2017-Sep-20 01:55S 33°12' E 151°44'7 1.0
2017-Sep-19 18:55S 33°17' E 151°39'0 0.0
2017-Sep-19 18:19S 33°17' E 151°39'0 0.0
2017-Sep-19 17:55S 33°17' E 151°39'0 0.0
2017-Sep-19 16:13S 33°17' E 151°39'0 0.1
2017-Sep-19 15:43S 33°17' E 151°39'0 0.2
2017-Sep-19 15:25S 33°17' E 151°39'0 0.0
2017-Sep-19 14:55S 33°17' E 151°39'0 0.0
2017-Sep-19 07:19S 33°17' E 151°39'0 0.0
2017-Sep-19 06:58S 33°17' E 151°39'0 0.0
2017-Sep-19 06:28S 33°17' E 151°39'0 0.0
2017-Sep-19 05:49S 33°17' E 151°39'0 0.1
2017-Sep-19 05:28S 33°17' E 151°39'0 0.2
2017-Sep-19 04:49S 33°17' E 151°39'0 0.0
2017-Sep-19 04:28S 33°17' E 151°39'0 0.1
2017-Sep-19 03:58S 33°17' E 151°39'0 0.2
2017-Sep-19 03:22S 33°17' E 151°39'0 0.0
2017-Sep-19 02:58S 33°17' E 151°39'0 0.1
2017-Sep-19 02:28S 33°18' E 151°39'0 0.1
2017-Sep-19 01:58S 33°18' E 151°39'0 0.0
2017-Sep-19 01:28S 33°18' E 151°39'0 0.1
2017-Sep-19 00:52S 33°18' E 151°39'0 0.0
2017-Sep-19 00:28S 33°18' E 151°39'0 0.1
2017-Sep-18 23:55S 33°18' E 151°39'0 0.0
2017-Sep-18 22:55S 33°18' E 151°39'0 0.1
2017-Sep-18 22:28S 33°18' E 151°39'0 0.0
2017-Sep-18 21:58S 33°18' E 151°39'0 0.0
2017-Sep-18 21:28S 33°18' E 151°39'0 0.1
2017-Sep-18 20:58S 33°18' E 151°39'0 0.0
2017-Sep-18 20:28S 33°18' E 151°39'0 0.0
2017-Sep-18 19:58S 33°18' E 151°39'0 0.0
2017-Sep-18 19:28S 33°18' E 151°39'0 0.0
2017-Sep-18 18:58S 33°18' E 151°39'0 0.0
2017-Sep-18 18:28S 33°18' E 151°39'0 0.1
2017-Sep-18 17:58S 33°18' E 151°39'0 0.1
2017-Sep-18 17:28S 33°18' E 151°39'0 0.1
2017-Sep-18 16:58S 33°18' E 151°39'0 0.1
2017-Sep-18 16:28S 33°18' E 151°39'0 0.0
2017-Sep-18 15:58S 33°18' E 151°39'0 0.1
2017-Sep-18 15:28S 33°18' E 151°39'0 0.0
2017-Sep-18 14:58S 33°18' E 151°39'0 0.0
2017-Sep-18 14:28S 33°18' E 151°39'0 0.0
2017-Sep-18 13:58S 33°18' E 151°39'0 0.0
2017-Sep-18 13:28S 33°18' E 151°39'0 0.0
2017-Sep-18 12:58S 33°18' E 151°39'0 0.0
2017-Sep-18 12:28S 33°18' E 151°39'0 0.1
2017-Sep-18 11:58S 33°18' E 151°39'0 0.0
2017-Sep-18 11:25S 33°18' E 151°39'0 0.1
2017-Sep-18 10:58S 33°18' E 151°39'0 0.1
2017-Sep-18 10:28S 33°18' E 151°39'0 0.1
2017-Sep-18 09:58S 33°18' E 151°39'0 0.0
2017-Sep-18 09:28S 33°18' E 151°39'0 0.0
2017-Sep-18 08:58S 33°18' E 151°39'0 0.0
2017-Sep-18 08:28S 33°18' E 151°39'0 0.0
2017-Sep-18 07:58S 33°18' E 151°39'0 0.0
2017-Sep-18 07:28S 33°18' E 151°39'0 0.0
2017-Sep-18 06:58S 33°18' E 151°39'0 0.0
2017-Sep-18 06:28S 33°18' E 151°39'0 0.0
2017-Sep-18 05:58S 33°18' E 151°39'0 0.0
2017-Sep-18 05:28S 33°18' E 151°39'0 0.0
2017-Sep-18 04:58S 33°18' E 151°39'0 0.0
2017-Sep-18 04:28S 33°18' E 151°39'0 0.0
2017-Sep-18 03:58S 33°18' E 151°39'0 0.0
2017-Sep-18 03:28S 33°18' E 151°39'0 0.0
2017-Sep-18 02:58S 33°18' E 151°39'0 0.0
2017-Sep-18 02:28S 33°18' E 151°39'0 0.0
2017-Sep-18 01:55S 33°18' E 151°39'0 0.0
2017-Sep-18 01:25S 33°18' E 151°39'0 0.1
2017-Sep-18 00:52S 33°18' E 151°39'0 0.0
2017-Sep-18 00:28S 33°18' E 151°39'0 0.0
2017-Sep-17 23:55S 33°18' E 151°39'0 0.0
2017-Sep-17 23:25S 33°18' E 151°39'0 0.0
2017-Sep-17 22:55S 33°18' E 151°39'0 0.0
2017-Sep-17 22:25S 33°18' E 151°39'0 0.0
2017-Sep-17 21:55S 33°18' E 151°39'0 0.0
2017-Sep-17 21:25S 33°18' E 151°39'0 0.1
2017-Sep-17 20:55S 33°18' E 151°39'0 0.1
2017-Sep-17 20:13S 33°18' E 151°39'0 0.0
2017-Sep-17 19:55S 33°18' E 151°39'0 0.0
2017-Sep-17 19:25S 33°18' E 151°39'0 0.0
2017-Sep-17 18:52S 33°18' E 151°39'0 0.1
2017-Sep-17 18:25S 33°18' E 151°39'0 0.0
2017-Sep-16 21:43S 33°17' E 151°39'0 0.0
2017-Sep-16 21:19S 33°17' E 151°39'0 0.0
2017-Sep-16 20:55S 33°17' E 151°39'0 0.0
2017-Sep-16 20:25S 33°17' E 151°39'0 0.0
2017-Sep-16 19:55S 33°17' E 151°39'0 0.1
2017-Sep-16 19:01S 33°17' E 151°39'0 0.5
2017-Sep-16 18:55S 33°17' E 151°39'0 0.0
2017-Sep-16 18:19S 33°17' E 151°39'0 0.1
2017-Sep-16 17:58S 33°17' E 151°39'0 0.1
2017-Sep-16 17:25S 33°17' E 151°39'0 0.0
2017-Sep-16 16:55S 33°17' E 151°39'0 0.1
2017-Sep-16 16:25S 33°17' E 151°39'0 0.0
2017-Sep-16 05:55S 33°17' E 151°39'0 0.2
2017-Sep-16 05:22S 33°17' E 151°39'0 0.1
2017-Sep-16 04:49S 33°17' E 151°39'0 0.2
2017-Sep-16 03:37S 33°18' E 151°39'0 0.0
2017-Sep-16 01:25S 33°18' E 151°39'0 0.0
2017-Sep-15 23:22S 33°18' E 151°39'0 0.0
2017-Sep-15 21:28S 33°18' E 151°39'0 0.0
2017-Sep-15 20:58S 33°18' E 151°39'0 0.1
2017-Sep-15 20:28S 33°18' E 151°39'0 0.1
2017-Sep-15 19:55S 33°18' E 151°39'0 0.1
2017-Sep-15 19:19S 33°17' E 151°39'0 0.1
2017-Sep-15 18:58S 33°17' E 151°39'0 0.0
2017-Sep-15 18:25S 33°17' E 151°39'0 0.2
2017-Sep-15 17:49S 33°18' E 151°39'0 1.1
2017-Sep-15 17:30S 33°17' E 151°40'3 5.4
2017-Sep-15 17:00S 33°16' E 151°42'810.4
2017-Sep-15 16:12S 33°12' E 151°51'413.0
2017-Sep-15 15:55S 33°10' E 151°55'512.9
2017-Sep-15 15:30S 33°07' E 152°00'612.8
2017-Sep-15 15:00S 33°04' E 152°07'5 9.3
2017-Sep-15 14:30S 33°01' E 152°11'1 1.2
2017-Sep-15 13:59S 33°02' E 152°11'1 1.1
2017-Sep-15 13:29S 33°02' E 152°11'1 1.1
2017-Sep-15 12:59S 33°03' E 152°11'1 1.3
2017-Sep-15 12:29S 33°03' E 152°11'1 1.3
2017-Sep-15 11:59S 33°04' E 152°12'1 1.0
2017-Sep-15 11:29S 33°05' E 152°12'0 0.8
2017-Sep-15 10:59S 33°05' E 152°12'0 0.9
2017-Sep-15 10:30S 33°05' E 152°13'1 1.1
2017-Sep-15 09:58S 33°05' E 152°13'1 1.4
2017-Sep-15 09:28S 33°06' E 152°14'1 1.6
2017-Sep-15 08:59S 33°06' E 152°15'1 1.2
2017-Sep-15 08:28S 33°06' E 152°16'1 1.2
2017-Sep-15 08:00S 33°06' E 152°16'2 4.5
2017-Sep-15 07:30S 33°05' E 152°18'612.9
2017-Sep-15 07:00S 32°59' E 152°21'612.8
2017-Sep-15 06:30S 32°53' E 152°24'713.1
2017-Sep-15 06:00S 32°47' E 152°27'713.3
2017-Sep-15 05:30S 32°41' E 152°31'612.9
2017-Sep-15 05:00S 32°35' E 152°34'612.6
2017-Sep-15 04:30S 32°29' E 152°37'1313.0
2017-Sep-15 03:33S 32°18' E 152°43'113.2
2017-Sep-15 03:30S 32°17' E 152°43'23111.2
2017-Sep-14 06:53S 28°33' E 153°48'512.5
2017-Sep-14 06:30S 28°29' E 153°48'612.1
2017-Sep-14 06:00S 28°22' E 153°48'612.4
2017-Sep-14 05:30S 28°16' E 153°48'612.7
2017-Sep-14 05:00S 28°10' E 153°48'613.0
2017-Sep-14 04:30S 28°03' E 153°48'713.4
2017-Sep-14 04:00S 27°57' E 153°48'713.3
2017-Sep-14 03:30S 27°50' E 153°48'713.1
2017-Sep-14 03:00S 27°44' E 153°49'613.0
2017-Sep-14 02:30S 27°37' E 153°49'812.9
2017-Sep-14 01:52S 27°29' E 153°49'2712.7
2017-Sep-13 23:46S 27°02' E 153°51'5912.5
2017-Sep-13 19:03S 26°03' E 153°54'113.8
2017-Sep-13 19:00S 26°03' E 153°54'814.3
2017-Sep-13 18:28S 25°55' E 153°55'714.6
2017-Sep-13 18:00S 25°48' E 153°57'  

Dump ship's entire track history